Time;durP1;ratioP1;P1;durP2;ratioP2;P2;SDS_P1;SDS_P2;PMS_P1;PMS_P2;Temp;Humidity;BMP_temperature;BMP_pressure;BME280_temperature;BME280_humidity;BME280_pressure;Samples;Min_cycle;Max_cycle;Signal;HPM_P1;HPM_P2
2023/10/14 00:01:10;;;;;;;7.60;6.50;;;18.80;99.90;;;;;;5056509;28;20217;-72
2023/10/14 00:03:41;;;;;;;7.38;6.45;;;18.80;99.90;;;;;;5051610;28;20208;-72
2023/10/14 00:06:11;;;;;;;6.72;6.13;;;18.70;99.90;;;;;;5061103;28;20267;-72
2023/10/14 00:08:48;;;;;;;7.88;6.38;;;18.70;99.90;;;;;;5071870;28;20186;-73
2023/10/14 00:11:15;;;;;;;11.98;9.18;;;18.70;99.90;;;;;;5075625;28;20246;-72
2023/10/14 00:13:43;;;;;;;9.60;8.27;;;18.70;99.90;;;;;;5056041;28;20203;-72
2023/10/14 00:16:22;;;;;;;9.27;8.25;;;18.50;99.90;;;;;;5057945;28;20208;-72
2023/10/14 00:18:49;;;;;;;7.72;6.95;;;18.50;99.90;;;;;;5057752;28;20209;-72
2023/10/14 00:21:18;;;;;;;7.45;6.63;;;18.40;99.90;;;;;;5053887;28;20221;-73
2023/10/14 00:23:45;;;;;;;7.80;6.93;;;18.40;99.90;;;;;;5055918;28;20279;-72
2023/10/14 00:26:20;;;;;;;7.53;6.75;;;18.40;99.90;;;;;;5054933;28;20256;-72
2023/10/14 00:28:54;;;;;;;7.95;7.22;;;18.40;99.90;;;;;;5057270;28;20221;-72
2023/10/14 00:31:21;;;;;;;8.90;7.68;;;18.30;99.90;;;;;;5053001;28;20330;-73
2023/10/14 00:33:48;;;;;;;9.10;7.47;;;18.30;99.90;;;;;;5055456;28;20262;-73
2023/10/14 00:36:17;;;;;;;8.13;7.43;;;18.30;99.90;;;;;;5054925;28;20207;-72
2023/10/14 00:38:45;;;;;;;11.27;8.57;;;18.30;99.90;;;;;;5053063;28;20281;-71
2023/10/14 00:41:12;;;;;;;9.10;8.20;;;18.30;99.90;;;;;;5055106;28;20222;-71
2023/10/14 00:43:40;;;;;;;9.77;8.77;;;18.20;99.90;;;;;;5058892;28;20201;-71
2023/10/14 00:46:16;;;;;;;10.65;8.40;;;18.20;99.90;;;;;;5056173;28;20296;-71
2023/10/14 00:48:46;;;;;;;9.50;8.50;;;18.10;99.90;;;;;;5054615;28;20209;-72
2023/10/14 00:51:14;;;;;;;11.38;9.10;;;18.10;99.90;;;;;;5056489;28;20238;-75
2023/10/14 00:53:52;;;;;;;8.88;8.00;;;18.00;99.90;;;;;;5057201;28;20227;-72
2023/10/14 00:56:27;;;;;;;11.35;8.02;;;18.00;99.90;;;;;;5052786;28;20226;-71
2023/10/14 00:58:58;;;;;;;10.95;8.18;;;17.90;99.90;;;;;;5056205;28;20755;-72
2023/10/14 01:01:28;;;;;;;9.95;8.95;;;17.90;99.90;;;;;;5055721;28;20226;-72
2023/10/14 01:04:03;;;;;;;9.15;8.23;;;17.90;99.90;;;;;;5056730;28;20878;-71
2023/10/14 01:06:34;;;;;;;11.50;8.45;;;17.90;99.90;;;;;;5051815;28;20195;-72
2023/10/14 01:09:10;;;;;;;10.65;7.90;;;17.90;99.90;;;;;;5059128;28;20202;-72
2023/10/14 01:11:41;;;;;;;10.23;8.75;;;17.90;99.90;;;;;;5058054;28;20228;-71
2023/10/14 01:14:14;;;;;;;7.88;6.85;;;17.80;99.90;;;;;;5060338;28;20288;-74
2023/10/14 01:16:41;;;;;;;9.32;7.85;;;17.80;99.90;;;;;;5055705;28;20210;-70
2023/10/14 01:19:10;;;;;;;9.57;8.48;;;17.80;99.90;;;;;;5056655;28;20293;-71
2023/10/14 01:21:41;;;;;;;10.10;8.32;;;17.70;99.90;;;;;;5064620;28;20223;-72
2023/10/14 01:24:16;;;;;;;8.77;7.88;;;17.70;99.90;;;;;;5072473;28;20321;-72
2023/10/14 01:26:51;;;;;;;8.73;7.82;;;17.70;99.90;;;;;;5073123;28;20194;-72
2023/10/14 01:29:25;;;;;;;9.02;8.10;;;17.70;99.90;;;;;;5056846;28;20209;-71
2023/10/14 01:32:10;;;;;;;9.68;8.48;;;17.60;99.90;;;;;;5051000;28;20209;-72
2023/10/14 01:34:42;;;;;;;9.02;8.13;;;17.60;99.90;;;;;;5054938;28;20206;-72
2023/10/14 01:37:18;;;;;;;9.55;8.15;;;17.60;99.90;;;;;;5059067;28;20285;-72
2023/10/14 01:39:50;;;;;;;9.20;8.30;;;17.60;99.90;;;;;;5052470;28;20198;-71
2023/10/14 01:42:18;;;;;;;10.93;8.02;;;17.50;99.90;;;;;;5053749;28;20918;-71
2023/10/14 01:44:45;;;;;;;8.52;7.55;;;17.40;99.90;;;;;;5055486;28;20578;-73
2023/10/14 01:47:12;;;;;;;8.98;8.15;;;17.40;99.90;;;;;;5054826;28;20214;-72
2023/10/14 01:49:39;;;;;;;10.13;8.52;;;17.40;99.90;;;;;;5053503;28;20278;-72
2023/10/14 01:52:08;;;;;;;9.93;8.93;;;17.40;99.90;;;;;;5052744;28;20681;-73
2023/10/14 01:54:39;;;;;;;10.77;8.82;;;17.40;99.90;;;;;;5058399;28;20195;-73
2023/10/14 01:57:17;;;;;;;9.20;8.30;;;17.40;99.90;;;;;;5056128;28;20206;-72
2023/10/14 01:59:47;;;;;;;8.55;7.75;;;17.40;99.90;;;;;;5059148;28;20207;-72
2023/10/14 02:02:20;;;;;;;9.65;8.70;;;17.40;99.90;;;;;;5055017;28;20345;-73
2023/10/14 02:04:47;;;;;;;10.70;8.02;;;17.30;99.90;;;;;;5052494;28;20230;-72
2023/10/14 02:07:19;;;;;;;9.40;8.50;;;17.30;99.90;;;;;;5057670;28;20271;-71
2023/10/14 02:09:47;;;;;;;9.55;8.65;;;17.30;99.90;;;;;;5097193;28;20693;-73
2023/10/14 02:12:16;;;;;;;11.05;9.45;;;17.20;99.90;;;;;;5058324;28;20217;-71
2023/10/14 02:14:44;;;;;;;9.57;8.65;;;17.10;99.90;;;;;;5053297;28;20623;-72
2023/10/14 02:17:12;;;;;;;8.90;8.00;;;17.00;99.90;;;;;;5053285;28;20672;-72
2023/10/14 02:19:41;;;;;;;8.90;8.10;;;17.00;99.90;;;;;;5056942;28;20254;-72
2023/10/14 02:22:10;;;;;;;9.23;8.30;;;17.10;99.90;;;;;;5053052;28;20202;-72
2023/10/14 02:24:37;;;;;;;8.32;7.53;;;17.10;99.90;;;;;;5053356;28;20222;-72
2023/10/14 02:27:11;;;;;;;9.65;7.85;;;17.20;99.90;;;;;;5057326;28;20276;-72
2023/10/14 02:29:43;;;;;;;8.68;7.78;;;17.20;99.90;;;;;;5052666;28;20225;-72
2023/10/14 02:32:12;;;;;;;8.98;8.07;;;17.20;99.90;;;;;;5053946;28;20198;-75
2023/10/14 02:34:39;;;;;;;8.95;8.05;;;17.10;99.90;;;;;;5054516;28;20199;-72
2023/10/14 02:37:07;;;;;;;9.80;8.80;;;17.10;99.90;;;;;;5055268;28;20827;-72
2023/10/14 02:39:34;;;;;;;9.13;8.23;;;17.10;99.90;;;;;;5051723;28;20242;-72
2023/10/14 02:42:07;;;;;;;8.88;8.07;;;17.10;99.90;;;;;;5059965;28;20292;-73
2023/10/14 02:44:44;;;;;;;9.05;8.07;;;17.10;99.90;;;;;;5054582;28;20234;-72
2023/10/14 02:47:14;;;;;;;8.38;7.57;;;17.10;99.90;;;;;;5056333;28;20327;-73
2023/10/14 02:49:42;;;;;;;8.77;7.88;;;17.10;99.90;;;;;;5055880;28;20720;-72
2023/10/14 02:52:11;;;;;;;8.95;7.55;;;17.10;99.90;;;;;;5055747;28;20198;-72
2023/10/14 02:54:40;;;;;;;9.35;7.90;;;17.10;99.90;;;;;;5058356;28;20286;-73
2023/10/14 02:57:14;;;;;;;9.48;8.48;;;17.10;99.90;;;;;;5065584;28;20282;-71
2023/10/14 02:59:46;;;;;;;8.73;7.82;;;17.10;99.90;;;;;;5055448;28;20690;-73
2023/10/14 03:02:16;;;;;;;10.80;8.13;;;17.10;99.90;;;;;;5068219;28;20709;-73
2023/10/14 03:07:28;;;;;;;8.27;7.50;;;17.10;99.90;;;;;;5050130;28;20210;-72
2023/10/14 03:09:58;;;;;;;7.95;7.15;;;17.10;99.90;;;;;;5054826;28;20305;-73
2023/10/14 03:12:25;;;;;;;7.90;7.10;;;17.10;99.90;;;;;;5062226;28;20202;-71
2023/10/14 03:14:53;;;;;;;10.10;7.78;;;17.00;99.90;;;;;;5058834;28;20579;-72
2023/10/14 03:17:38;;;;;;;8.95;8.00;;;16.90;99.90;;;;;;5055430;28;20289;-72
2023/10/14 03:20:34;;;;;;;10.20;8.27;;;16.90;99.90;;;;;;5060165;28;20635;-72
2023/10/14 03:22:56;;;;;;;9.07;8.07;;;16.80;99.90;;;;;;5060044;28;20198;-72
2023/10/14 03:25:24;;;;;;;9.60;8.60;;;16.80;99.90;;;;;;5056219;28;20206;-72
2023/10/14 03:27:51;;;;;;;9.40;8.43;;;16.80;99.90;;;;;;5057559;28;20301;-72
2023/10/14 03:30:18;;;;;;;8.88;8.07;;;16.80;99.90;;;;;;5059127;28;20972;-72
2023/10/14 03:32:46;;;;;;;7.47;6.78;;;16.70;99.90;;;;;;5057251;28;20289;-72
2023/10/14 03:35:13;;;;;;;8.52;7.72;;;16.70;99.90;;;;;;5058696;28;20226;-72
2023/10/14 03:37:52;;;;;;;8.55;7.75;;;16.70;99.90;;;;;;5055553;28;20259;-73
2023/10/14 03:40:51;;;;;;;8.50;7.60;;;16.70;99.90;;;;;;5060586;28;20353;-72
2023/10/14 03:43:19;;;;;;;9.38;7.40;;;16.70;99.90;;;;;;5056306;28;20198;-71
2023/10/14 03:45:48;;;;;;;8.02;7.32;;;16.70;99.90;;;;;;5056882;28;20203;-72
2023/10/14 03:48:17;;;;;;;7.80;7.10;;;16.70;99.90;;;;;;5052775;28;20309;-72
2023/10/14 03:50:46;;;;;;;8.55;7.65;;;16.70;99.90;;;;;;5057358;28;20240;-72
2023/10/14 03:53:13;;;;;;;9.02;8.05;;;16.60;99.90;;;;;;5053810;28;20206;-72
2023/10/14 03:55:41;;;;;;;8.60;7.85;;;16.70;99.90;;;;;;5058531;28;20300;-72
2023/10/14 03:58:09;;;;;;;9.50;8.57;;;16.70;99.90;;;;;;5060010;28;20191;-71
2023/10/14 04:00:39;;;;;;;8.07;7.35;;;16.70;99.90;;;;;;5052100;28;20241;-72
2023/10/14 04:03:11;;;;;;;9.45;8.55;;;16.70;99.90;;;;;;5053361;28;20221;-71
2023/10/14 04:05:41;;;;;;;9.40;8.45;;;16.60;99.90;;;;;;5060766;28;20293;-72
2023/10/14 04:08:09;;;;;;;9.77;7.57;;;16.60;99.90;;;;;;5064805;28;20211;-73
2023/10/14 04:10:44;;;;;;;8.85;7.95;;;16.60;99.90;;;;;;5078815;28;20234;-72
2023/10/14 04:13:15;;;;;;;9.20;8.27;;;16.50;99.90;;;;;;5058677;28;20198;-72
2023/10/14 04:15:49;;;;;;;9.35;8.13;;;16.50;99.90;;;;;;5056751;28;20211;-72
2023/10/14 04:18:24;;;;;;;10.30;8.68;;;16.50;99.90;;;;;;5050522;28;20198;-72
2023/10/14 04:21:12;;;;;;;9.15;8.30;;;16.50;99.90;;;;;;5055301;28;20225;-73
2023/10/14 04:23:59;;;;;;;9.35;8.45;;;16.50;99.90;;;;;;5056792;28;20228;-72
2023/10/14 04:26:31;;;;;;;8.95;8.05;;;16.50;99.90;;;;;;5053587;28;20190;-73
2023/10/14 04:28:59;;;;;;;8.65;7.68;;;16.50;99.90;;;;;;5054422;28;20302;-71
2023/10/14 04:31:39;;;;;;;8.93;8.02;;;16.50;99.90;;;;;;5052785;28;20302;-71
2023/10/14 04:34:07;;;;;;;8.50;7.68;;;16.50;99.90;;;;;;5054369;28;20280;-73
2023/10/14 04:36:53;;;;;;;8.43;7.63;;;16.50;99.90;;;;;;5057459;28;20233;-72
2023/10/14 04:39:26;;;;;;;9.27;8.32;;;16.50;99.90;;;;;;5054232;28;20223;-71
2023/10/14 04:44:45;;;;;;;9.77;8.68;;;16.50;99.90;;;;;;5035954;28;20722;-71
2023/10/14 04:47:19;;;;;;;9.68;8.55;;;16.40;99.90;;;;;;5054718;28;20202;-71
2023/10/14 04:49:51;;;;;;;8.77;7.97;;;16.40;99.90;;;;;;5056333;28;20219;-72
2023/10/14 04:52:21;;;;;;;10.48;9.27;;;16.40;99.90;;;;;;5059428;28;20206;-71
2023/10/14 04:54:54;;;;;;;8.40;7.60;;;16.30;99.90;;;;;;5080387;28;20193;-72
2023/10/14 04:57:23;;;;;;;11.00;8.85;;;16.30;99.90;;;;;;5077169;28;20270;-73
2023/10/14 04:59:57;;;;;;;10.48;8.43;;;16.30;99.90;;;;;;5066128;28;20268;-71
2023/10/14 05:02:24;;;;;;;8.80;7.90;;;16.30;99.90;;;;;;5059243;28;20217;-72
2023/10/14 05:04:52;;;;;;;9.95;8.90;;;16.30;99.90;;;;;;5055562;28;20621;-71
2023/10/14 05:07:20;;;;;;;8.90;8.00;;;16.30;99.90;;;;;;5057999;28;20194;-71
2023/10/14 05:12:33;;;;;;;9.38;8.27;;;16.30;99.90;;;;;;5055631;28;20197;-71
2023/10/14 05:15:19;;;;;;;11.10;7.97;;;16.30;99.90;;;;;;5055759;28;20272;-72
2023/10/14 05:17:48;;;;;;;8.02;7.22;;;16.30;99.90;;;;;;5051358;28;20280;-71
2023/10/14 05:20:19;;;;;;;9.45;8.55;;;16.20;99.90;;;;;;5061118;28;20225;-72
2023/10/14 05:22:49;;;;;;;8.82;7.93;;;16.20;99.90;;;;;;5057564;28;20302;-71
2023/10/14 05:25:27;;;;;;;7.85;7.05;;;16.20;99.90;;;;;;5055538;28;20203;-71
2023/10/14 05:27:58;;;;;;;9.10;8.20;;;16.20;99.90;;;;;;5054954;28;20206;-71
2023/10/14 05:30:32;;;;;;;8.90;7.95;;;16.20;99.90;;;;;;5052040;28;20246;-72
2023/10/14 05:33:06;;;;;;;8.52;7.40;;;16.20;99.90;;;;;;5051337;28;20209;-72
2023/10/14 05:35:40;;;;;;;8.90;7.90;;;16.30;99.90;;;;;;5054361;28;20248;-71
2023/10/14 05:38:11;;;;;;;9.48;8.48;;;16.30;99.90;;;;;;5052772;28;20195;-71
2023/10/14 05:40:39;;;;;;;14.82;8.63;;;16.30;99.90;;;;;;5054931;28;20520;-71
2023/10/14 05:43:06;;;;;;;9.00;8.10;;;16.30;99.90;;;;;;5056377;28;20673;-71
2023/10/14 05:45:35;;;;;;;8.98;8.07;;;16.30;99.90;;;;;;5053928;28;20209;-71
2023/10/14 05:48:04;;;;;;;9.23;8.25;;;16.40;99.90;;;;;;5058197;28;20207;-71
2023/10/14 05:50:32;;;;;;;10.15;8.70;;;16.40;99.90;;;;;;5057598;28;20309;-71
2023/10/14 05:52:59;;;;;;;9.23;8.32;;;16.40;99.90;;;;;;5052009;28;20190;-72
2023/10/14 05:55:29;;;;;;;8.52;7.72;;;16.40;99.90;;;;;;5054086;28;20253;-72
2023/10/14 05:58:00;;;;;;;9.32;8.10;;;16.40;99.90;;;;;;5056220;28;21112;-71
2023/10/14 06:00:27;;;;;;;9.68;8.68;;;16.40;99.90;;;;;;5056678;28;20751;-72
2023/10/14 06:02:55;;;;;;;9.52;8.35;;;16.40;99.90;;;;;;5054386;28;21430;-71
2023/10/14 06:05:23;;;;;;;10.55;8.18;;;16.40;99.90;;;;;;5057886;28;20202;-71
2023/10/14 06:07:59;;;;;;;8.55;7.70;;;16.50;99.90;;;;;;5057595;28;20198;-71
2023/10/14 06:10:31;;;;;;;9.45;7.88;;;16.50;99.90;;;;;;5080092;28;20194;-72
2023/10/14 06:12:58;;;;;;;7.85;7.10;;;16.50;99.90;;;;;;5055439;28;20668;-72
2023/10/14 06:15:26;;;;;;;7.68;6.88;;;16.50;99.90;;;;;;5052546;28;20256;-71
2023/10/14 06:17:54;;;;;;;7.80;7.00;;;16.50;99.90;;;;;;5057407;28;20298;-71
2023/10/14 06:20:22;;;;;;;8.38;7.57;;;16.50;99.90;;;;;;5052155;28;20618;-71
2023/10/14 06:22:50;;;;;;;8.25;7.45;;;16.50;99.90;;;;;;5055220;28;20248;-72
2023/10/14 06:25:17;;;;;;;10.65;7.78;;;16.50;99.90;;;;;;5056949;28;20198;-72
2023/10/14 06:27:48;;;;;;;8.10;7.30;;;16.50;99.90;;;;;;5058894;28;20198;-72
2023/10/14 06:30:22;;;;;;;8.77;7.57;;;16.60;99.90;;;;;;5051816;28;20304;-72
2023/10/14 06:32:52;;;;;;;8.65;7.85;;;16.60;99.90;;;;;;5058902;28;20203;-71
2023/10/14 06:35:19;;;;;;;9.95;8.98;;;16.70;99.90;;;;;;5054363;28;20287;-72
2023/10/14 06:37:48;;;;;;;11.00;9.27;;;16.80;99.90;;;;;;5053479;28;20264;-72
2023/10/14 06:40:18;;;;;;;11.15;9.93;;;16.80;99.90;;;;;;5051419;28;20305;-71
2023/10/14 06:42:49;;;;;;;11.23;9.90;;;16.90;99.90;;;;;;5055032;28;20924;-72
2023/10/14 06:45:20;;;;;;;10.90;9.77;;;16.90;99.90;;;;;;5052434;28;20230;-70
2023/10/14 06:47:50;;;;;;;9.90;8.90;;;16.90;99.90;;;;;;5056258;28;20202;-72
2023/10/14 06:50:20;;;;;;;10.68;9.00;;;17.10;99.90;;;;;;5049957;28;20225;-73
2023/10/14 06:52:48;;;;;;;9.65;8.65;;;17.50;99.90;;;;;;5050794;28;20203;-72
2023/10/14 06:55:21;;;;;;;13.23;10.13;;;18.00;99.90;;;;;;5050703;28;20201;-72
2023/10/14 06:57:53;;;;;;;11.73;10.07;;;18.50;99.90;;;;;;5050746;28;20762;-71
2023/10/14 07:00:25;;;;;;;12.07;9.88;;;18.90;99.90;;;;;;5054538;28;20230;-70
2023/10/14 07:02:54;;;;;;;12.23;10.02;;;19.20;99.90;;;;;;5051314;28;20207;-71
2023/10/14 07:05:21;;;;;;;11.73;10.38;;;19.60;99.90;;;;;;5052893;28;20285;-71
2023/10/14 07:07:49;;;;;;;10.05;9.05;;;19.80;99.90;;;;;;5057778;28;20230;-72
2023/10/14 07:10:16;;;;;;;10.90;9.40;;;20.10;99.90;;;;;;5058080;28;20222;-72
2023/10/14 07:12:43;;;;;;;11.75;9.82;;;20.20;99.90;;;;;;5047619;28;20194;-71
2023/10/14 07:15:13;;;;;;;10.80;9.45;;;20.30;99.90;;;;;;5052172;28;21138;-71
2023/10/14 07:17:45;;;;;;;11.43;10.05;;;20.30;99.90;;;;;;5053695;28;20756;-72
2023/10/14 07:20:12;;;;;;;10.88;9.77;;;20.60;99.90;;;;;;5050601;28;20263;-72
2023/10/14 07:22:42;;;;;;;12.02;10.18;;;20.70;99.90;;;;;;5049629;28;20202;-71
2023/10/14 07:25:09;;;;;;;11.40;9.60;;;20.80;99.90;;;;;;5052988;28;20197;-72
2023/10/14 07:27:38;;;;;;;11.18;9.98;;;21.00;99.90;;;;;;5050071;28;20199;-72
2023/10/14 07:30:13;;;;;;;12.63;10.35;;;21.10;99.90;;;;;;5053247;28;20800;-71
2023/10/14 07:32:44;;;;;;;10.70;9.48;;;21.30;99.90;;;;;;5054360;28;20199;-72
2023/10/14 07:35:13;;;;;;;11.00;9.90;;;21.50;99.90;;;;;;5055200;28;20202;-71
2023/10/14 07:37:43;;;;;;;14.00;10.98;;;21.60;99.90;;;;;;5055832;28;20785;-71
2023/10/14 07:40:22;;;;;;;12.65;11.05;;;21.60;99.90;;;;;;5054136;28;20305;-71
2023/10/14 07:42:53;;;;;;;12.93;10.20;;;21.60;99.90;;;;;;5057985;28;20217;-72
2023/10/14 07:45:21;;;;;;;11.95;9.50;;;21.40;99.90;;;;;;5051710;28;20202;-72
2023/10/14 07:47:50;;;;;;;11.80;10.60;;;21.40;99.90;;;;;;5056540;28;20260;-71
2023/10/14 07:50:18;;;;;;;11.98;10.57;;;21.40;99.90;;;;;;5056510;28;20245;-72
2023/10/14 07:52:45;;;;;;;13.23;9.82;;;21.40;99.90;;;;;;5054966;28;21153;-70
2023/10/14 07:55:19;;;;;;;11.80;10.52;;;21.40;99.90;;;;;;5061338;28;20233;-71
2023/10/14 07:57:46;;;;;;;12.20;10.88;;;21.40;99.90;;;;;;5059692;28;20203;-72
2023/10/14 08:00:14;;;;;;;10.48;9.43;;;21.50;99.90;;;;;;5056619;28;20292;-71
2023/10/14 08:02:42;;;;;;;12.32;9.70;;;21.80;99.90;;;;;;5058817;28;20206;-72
2023/10/14 08:05:11;;;;;;;11.30;10.23;;;22.00;99.90;;;;;;5059499;28;20245;-71
2023/10/14 08:07:42;;;;;;;12.38;11.07;;;21.80;99.90;;;;;;5066231;28;20252;-71
2023/10/14 08:10:21;;;;;;;15.15;11.07;;;21.60;99.90;;;;;;5062238;28;20233;-75
2023/10/14 08:12:52;;;;;;;13.18;11.68;;;21.90;99.90;;;;;;5082341;28;20487;-72
2023/10/14 08:15:19;;;;;;;12.68;11.10;;;22.00;99.90;;;;;;5058688;28;20267;-71
2023/10/14 08:17:48;;;;;;;10.98;9.88;;;22.20;99.90;;;;;;5064048;28;20203;-72
2023/10/14 08:20:19;;;;;;;11.63;10.45;;;22.20;99.90;;;;;;5071620;28;20209;-72
2023/10/14 08:22:47;;;;;;;11.90;10.70;;;22.10;99.90;;;;;;5071528;28;20556;-71
2023/10/14 08:25:18;;;;;;;13.10;11.20;;;22.10;99.90;;;;;;5053751;28;20213;-71
2023/10/14 08:27:46;;;;;;;11.43;10.20;;;22.10;99.90;;;;;;5054541;28;20285;-71
2023/10/14 08:30:13;;;;;;;11.70;10.50;;;22.10;99.90;;;;;;5054980;28;20219;-71
2023/10/14 08:32:41;;;;;;;12.15;11.02;;;22.10;99.90;;;;;;5057492;28;20665;-71
2023/10/14 08:35:15;;;;;;;13.93;10.63;;;22.00;99.90;;;;;;5059529;28;20201;-73
2023/10/14 08:37:49;;;;;;;11.35;10.25;;;21.90;99.90;;;;;;5052745;28;20301;-74
2023/10/14 08:40:19;;;;;;;11.52;9.50;;;21.90;99.90;;;;;;5051054;28;20211;-76
2023/10/14 08:42:51;;;;;;;12.32;9.77;;;21.90;99.90;;;;;;5058087;28;20195;-74
2023/10/14 08:45:21;;;;;;;12.27;10.07;;;22.20;99.90;;;;;;5053753;28;20205;-73
2023/10/14 08:47:51;;;;;;;15.60;11.05;;;22.10;99.90;;;;;;5057937;28;20936;-73
2023/10/14 08:50:21;;;;;;;13.43;12.02;;;22.30;99.90;;;;;;5058695;28;20305;-75
2023/10/14 08:52:51;;;;;;;11.95;10.75;;;22.30;99.90;;;;;;5058470;28;20885;-73
2023/10/14 08:55:19;;;;;;;13.63;11.32;;;22.30;99.90;;;;;;5057563;28;20222;-73
2023/10/14 08:57:47;;;;;;;11.73;10.48;;;22.20;99.90;;;;;;5062648;28;20290;-74
2023/10/14 09:00:19;;;;;;;12.10;10.80;;;22.30;99.90;;;;;;5058880;28;20862;-75
2023/10/14 09:02:49;;;;;;;14.70;11.07;;;22.50;99.90;;;;;;5056393;28;20203;-73
2023/10/14 09:05:18;;;;;;;11.60;9.75;;;22.60;99.90;;;;;;5056280;28;20297;-74
2023/10/14 09:07:46;;;;;;;17.40;13.02;;;22.90;99.90;;;;;;5059042;28;20257;-73
2023/10/14 09:10:18;;;;;;;13.65;9.82;;;22.70;99.90;;;;;;5052859;28;20267;-74
2023/10/14 09:13:04;;;;;;;12.63;10.70;;;22.30;99.90;;;;;;5060971;28;20271;-73
2023/10/14 09:15:33;;;;;;;13.48;10.73;;;21.80;99.90;;;;;;5054941;28;20618;-73
2023/10/14 09:18:01;;;;;;;13.10;10.23;;;21.60;99.90;;;;;;5059957;28;20199;-72
2023/10/14 09:20:30;;;;;;;12.77;10.27;;;21.40;99.90;;;;;;5058864;28;20214;-73
2023/10/14 09:23:18;;;;;;;11.30;10.07;;;21.60;99.90;;;;;;5058648;28;20202;-73
2023/10/14 09:25:49;;;;;;;13.38;10.32;;;22.20;99.90;;;;;;5062040;28;20206;-72
2023/10/14 09:28:20;;;;;;;12.07;10.57;;;22.00;99.90;;;;;;5060153;28;20205;-73
2023/10/14 09:30:49;;;;;;;11.77;10.57;;;21.90;99.90;;;;;;5058099;28;20302;-75
2023/10/14 09:33:19;;;;;;;10.85;9.75;;;21.70;99.90;;;;;;5058672;28;20195;-72
2023/10/14 09:35:48;;;;;;;9.95;8.82;;;21.60;99.90;;;;;;5059241;28;20606;-74
2023/10/14 09:38:19;;;;;;;12.98;10.38;;;21.80;99.90;;;;;;5056538;28;20922;-72
2023/10/14 09:40:53;;;;;;;14.13;9.95;;;22.20;99.90;;;;;;5061423;28;20207;-75
2023/10/14 09:43:23;;;;;;;13.82;11.70;;;22.90;99.90;;;;;;5060771;28;20289;-73
2023/10/14 09:45:55;;;;;;;16.38;11.63;;;23.50;99.90;;;;;;5059599;28;20285;-72
2023/10/14 09:48:24;;;;;;;17.95;11.93;;;23.50;99.90;;;;;;5064213;28;20202;-72
2023/10/14 09:50:54;;;;;;;13.88;11.07;;;23.50;99.90;;;;;;5062475;28;20214;-74
2023/10/14 09:53:26;;;;;;;15.60;10.40;;;23.40;99.90;;;;;;5064860;28;20206;-72
2023/10/14 09:55:56;;;;;;;12.15;10.90;;;23.40;99.90;;;;;;5063901;28;20206;-74
2023/10/14 09:58:25;;;;;;;14.68;11.95;;;23.50;99.90;;;;;;5059021;28;20848;-73
2023/10/14 10:00:52;;;;;;;12.18;10.88;;;23.60;99.90;;;;;;5055848;28;20309;-73
2023/10/14 10:03:21;;;;;;;12.80;9.95;;;23.70;99.90;;;;;;5060888;28;20207;-73
2023/10/14 10:06:07;;;;;;;14.82;10.68;;;23.70;99.90;;;;;;5064766;28;20411;-74
2023/10/14 10:09:10;;;;;;;11.52;10.05;;;23.50;99.90;;;;;;5054090;28;20202;-76
2023/10/14 10:11:39;;;;;;;13.23;10.65;;;23.20;99.90;;;;;;5051790;28;20416;-74
2023/10/14 10:14:12;;;;;;;11.48;9.73;;;22.80;99.90;;;;;;5072235;28;20350;-75
2023/10/14 10:16:42;;;;;;;9.77;7.97;;;22.30;99.90;;;;;;5069818;28;20198;-73
2023/10/14 10:19:11;;;;;;;10.50;8.75;;;22.20;99.90;;;;;;5054049;28;20703;-73
2023/10/14 10:21:40;;;;;;;11.43;8.70;;;22.30;99.90;;;;;;5048729;28;20240;-74
2023/10/14 10:24:23;;;;;;;9.27;8.30;;;22.10;99.90;;;;;;5049797;28;20571;-72
2023/10/14 10:27:08;;;;;;;9.48;8.48;;;22.00;99.90;;;;;;5053983;28;20198;-74
2023/10/14 10:29:43;;;;;;;14.00;9.70;;;22.00;99.90;;;;;;5052630;28;20210;-73
2023/10/14 10:32:12;;;;;;;10.82;9.73;;;22.20;99.90;;;;;;5056359;28;20795;-74
2023/10/14 10:35:13;;;;;;;10.23;9.27;;;22.70;99.90;;;;;;5058908;28;20295;-75
2023/10/14 10:37:42;;;;;;;10.43;9.20;;;23.10;99.90;;;;;;5055826;28;20191;-75
2023/10/14 10:40:11;;;;;;;16.20;11.82;;;23.60;99.90;;;;;;5056062;28;20865;-73
2023/10/14 10:42:42;;;;;;;11.82;10.55;;;23.90;99.90;;;;;;5054907;28;20414;-72
2023/10/14 10:45:15;;;;;;;10.88;9.25;;;23.90;99.90;;;;;;5053220;28;21500;-73
2023/10/14 10:47:45;;;;;;;11.27;9.35;;;23.80;99.90;;;;;;5049833;28;20199;-72
2023/10/14 10:50:15;;;;;;;13.32;11.10;;;24.00;99.90;;;;;;5053747;28;20841;-73
2023/10/14 10:52:46;;;;;;;11.77;10.55;;;24.10;99.90;;;;;;5053882;28;20796;-74
2023/10/14 10:55:14;;;;;;;12.50;10.35;;;24.00;99.90;;;;;;5053461;28;20236;-71
2023/10/14 10:57:46;;;;;;;10.85;9.43;;;23.80;99.90;;;;;;5056725;28;20190;-72
2023/10/14 11:00:17;;;;;;;13.35;10.10;;;23.90;99.90;;;;;;5055390;28;20215;-71
2023/10/14 11:02:45;;;;;;;12.30;10.85;;;24.00;99.90;;;;;;5053618;28;20194;-71
2023/10/14 11:05:13;;;;;;;10.65;9.55;;;24.10;99.90;;;;;;5047229;28;20305;-72
2023/10/14 11:07:43;;;;;;;13.40;10.57;;;24.40;99.90;;;;;;5053349;28;20687;-71
2023/10/14 11:10:13;;;;;;;12.43;11.18;;;24.50;99.90;;;;;;5057864;28;20236;-71
2023/10/14 11:12:40;;;;;;;14.75;11.35;;;24.50;99.90;;;;;;5056725;28;20225;-71
2023/10/14 11:15:21;;;;;;;13.10;10.82;;;24.50;99.90;;;;;;5060394;28;20218;-71
2023/10/14 11:17:52;;;;;;;12.85;10.80;;;24.40;99.90;;;;;;5055045;28;20317;-70
2023/10/14 11:20:20;;;;;;;13.05;11.38;;;24.30;99.90;;;;;;5058637;28;20225;-70
2023/10/14 11:22:47;;;;;;;11.18;10.02;;;24.30;99.90;;;;;;5054464;28;20859;-71
2023/10/14 11:25:18;;;;;;;14.63;11.20;;;24.40;99.90;;;;;;5054768;28;20346;-71
2023/10/14 11:27:45;;;;;;;11.38;9.23;;;24.40;99.90;;;;;;5050377;28;20203;-72
2023/10/14 11:30:13;;;;;;;12.25;9.50;;;24.20;99.90;;;;;;5053337;28;20222;-71
2023/10/14 11:32:47;;;;;;;9.50;8.60;;;23.90;99.90;;;;;;5053812;28;20252;-71
2023/10/14 11:35:17;;;;;;;11.35;9.10;;;23.70;99.90;;;;;;5057875;28;20294;-74
2023/10/14 11:37:49;;;;;;;10.63;9.52;;;23.80;99.90;;;;;;5052569;28;20234;-72
2023/10/14 11:40:17;;;;;;;12.20;9.57;;;23.90;99.90;;;;;;5049954;28;20249;-73
2023/10/14 11:42:44;;;;;;;12.98;11.57;;;24.00;99.90;;;;;;5058508;28;20256;-73
2023/10/14 11:45:11;;;;;;;13.75;11.48;;;23.70;99.90;;;;;;5054668;28;20199;-73
2023/10/14 11:47:42;;;;;;;12.13;10.18;;;23.50;99.90;;;;;;5059310;28;20659;-74
2023/10/14 11:50:14;;;;;;;10.32;9.27;;;23.30;99.90;;;;;;5056529;28;20222;-73
2023/10/14 11:52:42;;;;;;;15.50;10.25;;;23.10;99.90;;;;;;5058763;28;20880;-75
2023/10/14 11:55:14;;;;;;;10.75;8.93;;;23.40;99.90;;;;;;5056385;28;20277;-73
2023/10/14 11:57:44;;;;;;;12.60;10.82;;;23.70;99.90;;;;;;5060451;28;20202;-73
2023/10/14 12:00:16;;;;;;;12.45;10.02;;;23.70;99.90;;;;;;5057437;28;20221;-72
2023/10/14 12:02:44;;;;;;;10.75;9.10;;;23.60;99.90;;;;;;5072666;28;20223;-73
2023/10/14 12:05:13;;;;;;;11.02;9.63;;;23.60;99.90;;;;;;5069847;28;20489;-75
2023/10/14 12:07:40;;;;;;;9.95;8.68;;;23.40;99.90;;;;;;5070297;28;20225;-73
2023/10/14 12:10:08;;;;;;;15.13;9.80;;;23.20;99.90;;;;;;5057773;28;20218;-72
2023/10/14 12:12:37;;;;;;;9.45;8.48;;;23.10;99.90;;;;;;5053098;28;20736;-74
2023/10/14 12:15:06;;;;;;;10.18;8.00;;;23.00;99.90;;;;;;5060121;28;20230;-73
2023/10/14 12:17:34;;;;;;;10.23;8.02;;;23.00;99.90;;;;;;5076701;28;20196;-72
2023/10/14 12:20:05;;;;;;;8.45;7.65;;;23.00;99.90;;;;;;5053583;28;20307;-73
2023/10/14 12:22:34;;;;;;;8.57;7.65;;;23.10;99.90;;;;;;5049443;28;20207;-71
2023/10/14 12:25:02;;;;;;;9.10;8.02;;;23.30;99.90;;;;;;5051050;28;21540;-72
2023/10/14 12:27:29;;;;;;;8.63;7.88;;;23.30;99.90;;;;;;5052924;28;20300;-74
2023/10/14 12:29:59;;;;;;;9.18;7.38;;;23.30;99.90;;;;;;5051689;28;20226;-72
2023/10/14 12:32:30;;;;;;;10.02;7.72;;;23.40;99.90;;;;;;5050579;28;20685;-73
2023/10/14 12:34:57;;;;;;;9.27;8.38;;;23.40;99.90;;;;;;5053039;28;20675;-71
2023/10/14 12:37:24;;;;;;;10.07;8.05;;;23.30;99.90;;;;;;5051301;28;20202;-72
2023/10/14 12:39:55;;;;;;;8.30;7.60;;;23.10;99.90;;;;;;5053239;28;20309;-72
2023/10/14 12:42:38;;;;;;;10.10;8.73;;;22.90;99.90;;;;;;5049956;28;20198;-73
2023/10/14 12:45:12;;;;;;;8.45;7.65;;;22.90;99.90;;;;;;5054725;28;21044;-72
2023/10/14 12:47:45;;;;;;;10.60;8.82;;;22.80;99.90;;;;;;5055200;28;20210;-71
2023/10/14 12:50:14;;;;;;;10.00;7.78;;;23.10;99.90;;;;;;5048211;28;20232;-73
2023/10/14 12:52:41;;;;;;;8.95;6.88;;;23.30;99.90;;;;;;5050039;28;20802;-74
2023/10/14 12:55:22;;;;;;;7.95;6.70;;;23.70;99.90;;;;;;5048776;28;20195;-72
2023/10/14 12:57:49;;;;;;;8.27;7.35;;;24.00;99.90;;;;;;5052977;28;20198;-74
2023/10/14 13:00:25;;;;;;;8.48;7.53;;;24.30;99.90;;;;;;5046953;28;20218;-72
2023/10/14 13:02:52;;;;;;;10.82;7.88;;;24.10;99.90;;;;;;5050468;28;20626;-72
2023/10/14 13:05:20;;;;;;;8.45;7.32;;;23.70;99.90;;;;;;5053944;28;20190;-72